sensor_id;sensor_type;location;lat;lon;timestamp;P1;durP1;ratioP1;P2;durP2;ratioP2
15677;SDS011;7939;50.814;6.368;2023-03-01T00:01:52;8.67;;;6.63;;
15677;SDS011;7939;50.814;6.368;2023-03-01T00:04:18;7.07;;;5.70;;
15677;SDS011;7939;50.814;6.368;2023-03-01T00:06:45;7.97;;;6.03;;
15677;SDS011;7939;50.814;6.368;2023-03-01T00:09:12;9.40;;;6.47;;
15677;SDS011;7939;50.814;6.368;2023-03-01T00:11:41;7.90;;;5.83;;
15677;SDS011;7939;50.814;6.368;2023-03-01T00:14:07;7.53;;;6.23;;
15677;SDS011;7939;50.814;6.368;2023-03-01T00:16:35;7.77;;;6.07;;
15677;SDS011;7939;50.814;6.368;2023-03-01T00:19:03;10.40;;;6.27;;
15677;SDS011;7939;50.814;6.368;2023-03-01T00:21:30;8.90;;;6.80;;
15677;SDS011;7939;50.814;6.368;2023-03-01T00:23:57;7.13;;;5.93;;
15677;SDS011;7939;50.814;6.368;2023-03-01T00:26:25;6.70;;;5.80;;
15677;SDS011;7939;50.814;6.368;2023-03-01T00:28:54;13.20;;;7.23;;
15677;SDS011;7939;50.814;6.368;2023-03-01T00:31:23;7.80;;;6.30;;
15677;SDS011;7939;50.814;6.368;2023-03-01T00:33:52;9.20;;;6.63;;
15677;SDS011;7939;50.814;6.368;2023-03-01T00:36:22;10.57;;;6.83;;
15677;SDS011;7939;50.814;6.368;2023-03-01T00:38:51;6.83;;;5.80;;
15677;SDS011;7939;50.814;6.368;2023-03-01T00:41:18;9.87;;;6.60;;
15677;SDS011;7939;50.814;6.368;2023-03-01T00:43:47;7.40;;;6.53;;
15677;SDS011;7939;50.814;6.368;2023-03-01T00:46:17;9.93;;;6.60;;
15677;SDS011;7939;50.814;6.368;2023-03-01T00:48:45;8.23;;;6.23;;
15677;SDS011;7939;50.814;6.368;2023-03-01T00:51:13;9.00;;;6.40;;
15677;SDS011;7939;50.814;6.368;2023-03-01T00:53:41;7.70;;;6.23;;
15677;SDS011;7939;50.814;6.368;2023-03-01T00:56:09;7.97;;;6.20;;
15677;SDS011;7939;50.814;6.368;2023-03-01T00:58:37;9.70;;;6.87;;
15677;SDS011;7939;50.814;6.368;2023-03-01T01:01:06;7.17;;;6.07;;
15677;SDS011;7939;50.814;6.368;2023-03-01T01:03:43;10.00;;;7.17;;
15677;SDS011;7939;50.814;6.368;2023-03-01T01:06:17;7.97;;;6.07;;
15677;SDS011;7939;50.814;6.368;2023-03-01T01:08:45;8.00;;;6.13;;
15677;SDS011;7939;50.814;6.368;2023-03-01T01:11:12;10.33;;;6.33;;
15677;SDS011;7939;50.814;6.368;2023-03-01T01:13:39;9.20;;;6.37;;
15677;SDS011;7939;50.814;6.368;2023-03-01T01:16:07;7.43;;;6.17;;
15677;SDS011;7939;50.814;6.368;2023-03-01T01:18:34;9.30;;;6.47;;
15677;SDS011;7939;50.814;6.368;2023-03-01T01:21:07;6.93;;;6.20;;
15677;SDS011;7939;50.814;6.368;2023-03-01T01:23:35;7.33;;;6.27;;
15677;SDS011;7939;50.814;6.368;2023-03-01T01:26:03;7.90;;;6.20;;
15677;SDS011;7939;50.814;6.368;2023-03-01T01:28:30;8.13;;;6.73;;
15677;SDS011;7939;50.814;6.368;2023-03-01T01:30:57;7.07;;;6.30;;
15677;SDS011;7939;50.814;6.368;2023-03-01T01:33:24;9.03;;;6.93;;
15677;SDS011;7939;50.814;6.368;2023-03-01T01:35:51;10.03;;;7.27;;
15677;SDS011;7939;50.814;6.368;2023-03-01T01:38:19;11.97;;;7.00;;
15677;SDS011;7939;50.814;6.368;2023-03-01T01:40:47;8.60;;;6.03;;
15677;SDS011;7939;50.814;6.368;2023-03-01T01:43:16;8.40;;;6.33;;
15677;SDS011;7939;50.814;6.368;2023-03-01T01:45:46;8.80;;;6.67;;
15677;SDS011;7939;50.814;6.368;2023-03-01T01:48:14;8.33;;;6.77;;
15677;SDS011;7939;50.814;6.368;2023-03-01T01:50:44;9.33;;;6.40;;
15677;SDS011;7939;50.814;6.368;2023-03-01T01:53:16;8.67;;;6.03;;
15677;SDS011;7939;50.814;6.368;2023-03-01T01:55:47;7.63;;;6.07;;
15677;SDS011;7939;50.814;6.368;2023-03-01T01:58:18;8.63;;;6.40;;
15677;SDS011;7939;50.814;6.368;2023-03-01T02:00:47;7.00;;;6.00;;
15677;SDS011;7939;50.814;6.368;2023-03-01T02:03:14;7.93;;;6.13;;
15677;SDS011;7939;50.814;6.368;2023-03-01T02:05:46;8.90;;;6.50;;
15677;SDS011;7939;50.814;6.368;2023-03-01T02:08:20;8.47;;;7.17;;
15677;SDS011;7939;50.814;6.368;2023-03-01T02:10:49;8.13;;;6.63;;
15677;SDS011;7939;50.814;6.368;2023-03-01T02:13:17;7.90;;;6.53;;
15677;SDS011;7939;50.814;6.368;2023-03-01T02:15:44;7.87;;;6.53;;
15677;SDS011;7939;50.814;6.368;2023-03-01T02:18:12;9.23;;;7.07;;
15677;SDS011;7939;50.814;6.368;2023-03-01T02:20:44;9.97;;;6.23;;
15677;SDS011;7939;50.814;6.368;2023-03-01T02:23:22;8.23;;;6.47;;
15677;SDS011;7939;50.814;6.368;2023-03-01T02:25:52;7.63;;;6.70;;
15677;SDS011;7939;50.814;6.368;2023-03-01T02:28:26;11.00;;;6.80;;
15677;SDS011;7939;50.814;6.368;2023-03-01T02:30:57;10.70;;;6.57;;
15677;SDS011;7939;50.814;6.368;2023-03-01T02:33:41;8.97;;;6.23;;
15677;SDS011;7939;50.814;6.368;2023-03-01T02:36:08;9.07;;;6.20;;
15677;SDS011;7939;50.814;6.368;2023-03-01T02:38:39;8.90;;;6.73;;
15677;SDS011;7939;50.814;6.368;2023-03-01T02:41:06;8.90;;;6.93;;
15677;SDS011;7939;50.814;6.368;2023-03-01T02:43:35;10.40;;;6.70;;
15677;SDS011;7939;50.814;6.368;2023-03-01T02:46:03;8.07;;;6.47;;
15677;SDS011;7939;50.814;6.368;2023-03-01T02:48:39;10.93;;;6.90;;
15677;SDS011;7939;50.814;6.368;2023-03-01T02:51:10;7.83;;;6.73;;
15677;SDS011;7939;50.814;6.368;2023-03-01T02:53:46;11.10;;;7.53;;
15677;SDS011;7939;50.814;6.368;2023-03-01T02:56:22;10.10;;;7.13;;
15677;SDS011;7939;50.814;6.368;2023-03-01T02:58:51;9.27;;;6.80;;
15677;SDS011;7939;50.814;6.368;2023-03-01T03:01:19;11.33;;;7.87;;
15677;SDS011;7939;50.814;6.368;2023-03-01T03:03:46;9.57;;;7.03;;
15677;SDS011;7939;50.814;6.368;2023-03-01T03:06:12;10.27;;;7.60;;
15677;SDS011;7939;50.814;6.368;2023-03-01T03:08:39;11.63;;;8.13;;
15677;SDS011;7939;50.814;6.368;2023-03-01T03:11:06;10.67;;;7.53;;
15677;SDS011;7939;50.814;6.368;2023-03-01T03:13:33;10.33;;;7.20;;
15677;SDS011;7939;50.814;6.368;2023-03-01T03:16:01;14.53;;;8.00;;
15677;SDS011;7939;50.814;6.368;2023-03-01T03:18:29;10.83;;;6.97;;
15677;SDS011;7939;50.814;6.368;2023-03-01T03:20:56;11.00;;;7.80;;
15677;SDS011;7939;50.814;6.368;2023-03-01T03:23:23;10.47;;;7.80;;
15677;SDS011;7939;50.814;6.368;2023-03-01T03:25:50;8.43;;;7.20;;
15677;SDS011;7939;50.814;6.368;2023-03-01T03:28:17;11.70;;;6.63;;
15677;SDS011;7939;50.814;6.368;2023-03-01T03:30:44;11.07;;;7.83;;
15677;SDS011;7939;50.814;6.368;2023-03-01T03:33:13;12.30;;;8.13;;
15677;SDS011;7939;50.814;6.368;2023-03-01T03:35:40;10.30;;;7.00;;
15677;SDS011;7939;50.814;6.368;2023-03-01T03:38:09;10.43;;;7.90;;
15677;SDS011;7939;50.814;6.368;2023-03-01T03:40:42;7.80;;;7.00;;
15677;SDS011;7939;50.814;6.368;2023-03-01T03:43:11;9.93;;;7.33;;
15677;SDS011;7939;50.814;6.368;2023-03-01T03:45:39;10.07;;;7.27;;
15677;SDS011;7939;50.814;6.368;2023-03-01T03:48:07;10.80;;;7.63;;
15677;SDS011;7939;50.814;6.368;2023-03-01T03:50:37;9.97;;;6.63;;
15677;SDS011;7939;50.814;6.368;2023-03-01T03:53:06;9.67;;;7.07;;
15677;SDS011;7939;50.814;6.368;2023-03-01T03:55:34;9.90;;;7.27;;
15677;SDS011;7939;50.814;6.368;2023-03-01T03:58:04;11.43;;;7.20;;
15677;SDS011;7939;50.814;6.368;2023-03-01T04:00:33;10.80;;;7.27;;
15677;SDS011;7939;50.814;6.368;2023-03-01T04:03:00;8.90;;;7.20;;
15677;SDS011;7939;50.814;6.368;2023-03-01T04:05:27;8.17;;;6.90;;
15677;SDS011;7939;50.814;6.368;2023-03-01T04:07:55;11.33;;;7.07;;
15677;SDS011;7939;50.814;6.368;2023-03-01T04:10:33;10.97;;;7.47;;
15677;SDS011;7939;50.814;6.368;2023-03-01T04:13:01;9.67;;;7.60;;
15677;SDS011;7939;50.814;6.368;2023-03-01T04:15:29;10.73;;;7.20;;
15677;SDS011;7939;50.814;6.368;2023-03-01T04:17:58;8.97;;;7.03;;
15677;SDS011;7939;50.814;6.368;2023-03-01T04:20:26;8.77;;;6.57;;
15677;SDS011;7939;50.814;6.368;2023-03-01T04:22:58;8.77;;;6.57;;
15677;SDS011;7939;50.814;6.368;2023-03-01T04:25:33;8.57;;;6.47;;
15677;SDS011;7939;50.814;6.368;2023-03-01T04:28:00;10.10;;;7.70;;
15677;SDS011;7939;50.814;6.368;2023-03-01T04:30:26;9.40;;;7.10;;
15677;SDS011;7939;50.814;6.368;2023-03-01T04:32:53;9.63;;;7.13;;
15677;SDS011;7939;50.814;6.368;2023-03-01T04:35:19;8.93;;;7.17;;
15677;SDS011;7939;50.814;6.368;2023-03-01T04:37:46;10.87;;;7.17;;
15677;SDS011;7939;50.814;6.368;2023-03-01T04:40:14;9.23;;;7.43;;
15677;SDS011;7939;50.814;6.368;2023-03-01T04:42:42;10.27;;;7.77;;
15677;SDS011;7939;50.814;6.368;2023-03-01T04:45:09;10.83;;;7.87;;
15677;SDS011;7939;50.814;6.368;2023-03-01T04:47:38;12.37;;;7.77;;
15677;SDS011;7939;50.814;6.368;2023-03-01T04:50:06;9.03;;;7.47;;
15677;SDS011;7939;50.814;6.368;2023-03-01T04:52:33;8.73;;;7.17;;
15677;SDS011;7939;50.814;6.368;2023-03-01T04:55:00;8.53;;;6.93;;
15677;SDS011;7939;50.814;6.368;2023-03-01T04:57:28;9.17;;;7.07;;
15677;SDS011;7939;50.814;6.368;2023-03-01T04:59:55;9.63;;;7.97;;
15677;SDS011;7939;50.814;6.368;2023-03-01T05:02:21;8.80;;;7.60;;
15677;SDS011;7939;50.814;6.368;2023-03-01T05:04:48;11.03;;;7.40;;
15677;SDS011;7939;50.814;6.368;2023-03-01T05:07:15;9.50;;;6.80;;
15677;SDS011;7939;50.814;6.368;2023-03-01T05:09:44;12.37;;;7.70;;
15677;SDS011;7939;50.814;6.368;2023-03-01T05:12:11;12.43;;;7.50;;
15677;SDS011;7939;50.814;6.368;2023-03-01T05:14:39;9.03;;;6.67;;
15677;SDS011;7939;50.814;6.368;2023-03-01T05:17:06;9.37;;;7.10;;
15677;SDS011;7939;50.814;6.368;2023-03-01T05:19:32;11.43;;;7.63;;
15677;SDS011;7939;50.814;6.368;2023-03-01T05:21:59;11.77;;;7.37;;
15677;SDS011;7939;50.814;6.368;2023-03-01T05:24:30;11.17;;;7.57;;
15677;SDS011;7939;50.814;6.368;2023-03-01T05:26:58;12.33;;;7.73;;
15677;SDS011;7939;50.814;6.368;2023-03-01T05:29:25;9.87;;;7.50;;
15677;SDS011;7939;50.814;6.368;2023-03-01T05:31:55;10.27;;;6.77;;
15677;SDS011;7939;50.814;6.368;2023-03-01T05:34:24;12.10;;;7.13;;
15677;SDS011;7939;50.814;6.368;2023-03-01T05:36:51;11.53;;;7.10;;
15677;SDS011;7939;50.814;6.368;2023-03-01T05:39:18;10.93;;;7.77;;
15677;SDS011;7939;50.814;6.368;2023-03-01T05:41:47;14.00;;;7.87;;
15677;SDS011;7939;50.814;6.368;2023-03-01T05:44:13;12.97;;;7.77;;
15677;SDS011;7939;50.814;6.368;2023-03-01T05:46:41;10.70;;;7.77;;
15677;SDS011;7939;50.814;6.368;2023-03-01T05:49:08;10.80;;;7.37;;
15677;SDS011;7939;50.814;6.368;2023-03-01T05:51:35;10.30;;;7.60;;
15677;SDS011;7939;50.814;6.368;2023-03-01T05:54:02;9.90;;;7.67;;
15677;SDS011;7939;50.814;6.368;2023-03-01T05:56:32;11.17;;;8.47;;
15677;SDS011;7939;50.814;6.368;2023-03-01T05:58:58;10.67;;;9.30;;
15677;SDS011;7939;50.814;6.368;2023-03-01T06:01:25;13.50;;;10.38;;
15677;SDS011;7939;50.814;6.368;2023-03-01T06:03:52;11.87;;;8.90;;
15677;SDS011;7939;50.814;6.368;2023-03-01T06:06:20;14.93;;;8.57;;
15677;SDS011;7939;50.814;6.368;2023-03-01T06:08:47;12.60;;;8.80;;
15677;SDS011;7939;50.814;6.368;2023-03-01T06:11:13;13.67;;;8.80;;
15677;SDS011;7939;50.814;6.368;2023-03-01T06:13:40;11.87;;;8.27;;
15677;SDS011;7939;50.814;6.368;2023-03-01T06:16:07;12.50;;;8.43;;
15677;SDS011;7939;50.814;6.368;2023-03-01T06:18:34;12.83;;;8.00;;
15677;SDS011;7939;50.814;6.368;2023-03-01T06:21:01;11.87;;;8.50;;
15677;SDS011;7939;50.814;6.368;2023-03-01T06:23:30;10.90;;;8.63;;
15677;SDS011;7939;50.814;6.368;2023-03-01T06:25:56;11.00;;;8.60;;
15677;SDS011;7939;50.814;6.368;2023-03-01T06:28:23;13.00;;;8.27;;
15677;SDS011;7939;50.814;6.368;2023-03-01T06:30:50;11.40;;;8.60;;
15677;SDS011;7939;50.814;6.368;2023-03-01T06:33:17;12.37;;;7.97;;
15677;SDS011;7939;50.814;6.368;2023-03-01T06:35:45;12.93;;;8.77;;
15677;SDS011;7939;50.814;6.368;2023-03-01T06:38:11;12.10;;;8.43;;
15677;SDS011;7939;50.814;6.368;2023-03-01T06:40:41;13.83;;;8.87;;
15677;SDS011;7939;50.814;6.368;2023-03-01T06:43:08;12.43;;;8.20;;
15677;SDS011;7939;50.814;6.368;2023-03-01T06:45:34;11.00;;;8.60;;
15677;SDS011;7939;50.814;6.368;2023-03-01T06:48:01;10.57;;;8.67;;
15677;SDS011;7939;50.814;6.368;2023-03-01T06:50:29;12.57;;;8.77;;
15677;SDS011;7939;50.814;6.368;2023-03-01T06:52:56;11.30;;;8.97;;
15677;SDS011;7939;50.814;6.368;2023-03-01T06:55:23;11.90;;;8.03;;
15677;SDS011;7939;50.814;6.368;2023-03-01T06:57:54;11.97;;;9.20;;
15677;SDS011;7939;50.814;6.368;2023-03-01T07:00:22;14.70;;;9.20;;
15677;SDS011;7939;50.814;6.368;2023-03-01T07:02:49;14.93;;;9.63;;
15677;SDS011;7939;50.814;6.368;2023-03-01T07:05:16;16.43;;;9.23;;
15677;SDS011;7939;50.814;6.368;2023-03-01T07:07:43;12.20;;;9.40;;
15677;SDS011;7939;50.814;6.368;2023-03-01T07:10:10;10.57;;;8.77;;
15677;SDS011;7939;50.814;6.368;2023-03-01T07:12:37;15.53;;;9.03;;
15677;SDS011;7939;50.814;6.368;2023-03-01T07:15:05;13.33;;;9.03;;
15677;SDS011;7939;50.814;6.368;2023-03-01T07:17:35;12.03;;;8.07;;
15677;SDS011;7939;50.814;6.368;2023-03-01T07:20:02;11.40;;;8.90;;
15677;SDS011;7939;50.814;6.368;2023-03-01T07:22:28;12.30;;;9.27;;
15677;SDS011;7939;50.814;6.368;2023-03-01T07:24:55;12.77;;;9.27;;
15677;SDS011;7939;50.814;6.368;2023-03-01T07:27:22;14.10;;;9.87;;
15677;SDS011;7939;50.814;6.368;2023-03-01T07:29:49;13.87;;;9.80;;
15677;SDS011;7939;50.814;6.368;2023-03-01T07:32:17;14.43;;;9.47;;
15677;SDS011;7939;50.814;6.368;2023-03-01T07:34:43;15.70;;;10.53;;
15677;SDS011;7939;50.814;6.368;2023-03-01T07:37:10;13.40;;;9.73;;
15677;SDS011;7939;50.814;6.368;2023-03-01T07:39:36;12.30;;;9.83;;
15677;SDS011;7939;50.814;6.368;2023-03-01T07:42:03;12.50;;;9.60;;
15677;SDS011;7939;50.814;6.368;2023-03-01T07:44:29;14.80;;;10.00;;
15677;SDS011;7939;50.814;6.368;2023-03-01T07:46:56;13.97;;;10.10;;
15677;SDS011;7939;50.814;6.368;2023-03-01T07:49:24;16.67;;;10.27;;
15677;SDS011;7939;50.814;6.368;2023-03-01T07:51:52;14.80;;;10.03;;
15677;SDS011;7939;50.814;6.368;2023-03-01T07:54:18;13.10;;;9.83;;
15677;SDS011;7939;50.814;6.368;2023-03-01T07:56:45;16.17;;;11.07;;
15677;SDS011;7939;50.814;6.368;2023-03-01T07:59:12;14.87;;;10.60;;
15677;SDS011;7939;50.814;6.368;2023-03-01T08:01:39;12.87;;;9.40;;
15677;SDS011;7939;50.814;6.368;2023-03-01T08:04:05;14.67;;;9.63;;
15677;SDS011;7939;50.814;6.368;2023-03-01T08:06:35;15.03;;;10.77;;
15677;SDS011;7939;50.814;6.368;2023-03-01T08:09:02;12.60;;;9.33;;
15677;SDS011;7939;50.814;6.368;2023-03-01T08:11:29;17.93;;;12.13;;
15677;SDS011;7939;50.814;6.368;2023-03-01T08:13:55;16.13;;;11.10;;
15677;SDS011;7939;50.814;6.368;2023-03-01T08:16:23;14.57;;;10.67;;
15677;SDS011;7939;50.814;6.368;2023-03-01T08:18:49;17.80;;;11.33;;
15677;SDS011;7939;50.814;6.368;2023-03-01T08:21:17;16.10;;;11.00;;
15677;SDS011;7939;50.814;6.368;2023-03-01T08:23:45;17.43;;;12.07;;
15677;SDS011;7939;50.814;6.368;2023-03-01T08:26:13;17.37;;;11.53;;
15677;SDS011;7939;50.814;6.368;2023-03-01T08:28:42;17.87;;;12.20;;
15677;SDS011;7939;50.814;6.368;2023-03-01T08:31:16;13.23;;;9.97;;
15677;SDS011;7939;50.814;6.368;2023-03-01T08:33:45;13.93;;;10.33;;
15677;SDS011;7939;50.814;6.368;2023-03-01T08:36:16;17.07;;;11.13;;
15677;SDS011;7939;50.814;6.368;2023-03-01T08:38:43;17.77;;;11.57;;
15677;SDS011;7939;50.814;6.368;2023-03-01T08:41:12;15.77;;;10.20;;
15677;SDS011;7939;50.814;6.368;2023-03-01T08:43:39;15.67;;;11.37;;
15677;SDS011;7939;50.814;6.368;2023-03-01T08:46:06;15.93;;;11.77;;
15677;SDS011;7939;50.814;6.368;2023-03-01T08:48:32;19.87;;;12.20;;
15677;SDS011;7939;50.814;6.368;2023-03-01T08:51:06;18.93;;;12.27;;
15677;SDS011;7939;50.814;6.368;2023-03-01T08:53:34;21.93;;;13.17;;
15677;SDS011;7939;50.814;6.368;2023-03-01T08:56:00;18.77;;;12.60;;
15677;SDS011;7939;50.814;6.368;2023-03-01T08:58:29;20.77;;;12.83;;
15677;SDS011;7939;50.814;6.368;2023-03-01T09:00:56;25.17;;;13.10;;
15677;SDS011;7939;50.814;6.368;2023-03-01T09:03:22;22.27;;;13.73;;
15677;SDS011;7939;50.814;6.368;2023-03-01T09:05:50;23.75;;;15.32;;
15677;SDS011;7939;50.814;6.368;2023-03-01T09:08:17;23.20;;;16.53;;
15677;SDS011;7939;50.814;6.368;2023-03-01T09:10:44;20.87;;;12.97;;
15677;SDS011;7939;50.814;6.368;2023-03-01T09:13:10;19.47;;;13.33;;
15677;SDS011;7939;50.814;6.368;2023-03-01T09:15:39;20.93;;;14.27;;
15677;SDS011;7939;50.814;6.368;2023-03-01T09:18:05;22.33;;;12.40;;
15677;SDS011;7939;50.814;6.368;2023-03-01T09:20:32;19.83;;;12.17;;
15677;SDS011;7939;50.814;6.368;2023-03-01T09:22:59;18.87;;;12.27;;
15677;SDS011;7939;50.814;6.368;2023-03-01T09:25:25;19.93;;;12.00;;
15677;SDS011;7939;50.814;6.368;2023-03-01T09:27:53;18.53;;;13.53;;
15677;SDS011;7939;50.814;6.368;2023-03-01T09:30:21;17.90;;;12.33;;
15677;SDS011;7939;50.814;6.368;2023-03-01T09:32:50;18.57;;;12.03;;
15677;SDS011;7939;50.814;6.368;2023-03-01T09:35:17;21.10;;;13.07;;
15677;SDS011;7939;50.814;6.368;2023-03-01T09:37:45;17.20;;;12.73;;
15677;SDS011;7939;50.814;6.368;2023-03-01T09:40:12;17.47;;;12.37;;
15677;SDS011;7939;50.814;6.368;2023-03-01T09:42:45;22.83;;;13.73;;
15677;SDS011;7939;50.814;6.368;2023-03-01T09:45:17;20.43;;;13.60;;
15677;SDS011;7939;50.814;6.368;2023-03-01T09:47:53;20.80;;;14.00;;
15677;SDS011;7939;50.814;6.368;2023-03-01T09:50:20;24.67;;;14.60;;
15677;SDS011;7939;50.814;6.368;2023-03-01T09:52:49;20.63;;;13.30;;
15677;SDS011;7939;50.814;6.368;2023-03-01T09:55:23;23.57;;;15.13;;
15677;SDS011;7939;50.814;6.368;2023-03-01T09:57:57;21.43;;;12.40;;
15677;SDS011;7939;50.814;6.368;2023-03-01T10:00:33;23.57;;;15.03;;
15677;SDS011;7939;50.814;6.368;2023-03-01T10:03:11;20.03;;;13.10;;
15677;SDS011;7939;50.814;6.368;2023-03-01T10:08:31;21.40;;;14.03;;
15677;SDS011;7939;50.814;6.368;2023-03-01T10:11:04;18.77;;;12.77;;
15677;SDS011;7939;50.814;6.368;2023-03-01T10:13:33;23.93;;;14.30;;
15677;SDS011;7939;50.814;6.368;2023-03-01T10:16:06;20.10;;;13.00;;
15677;SDS011;7939;50.814;6.368;2023-03-01T10:18:39;18.83;;;12.30;;
15677;SDS011;7939;50.814;6.368;2023-03-01T10:21:11;22.80;;;14.63;;
15677;SDS011;7939;50.814;6.368;2023-03-01T10:23:40;23.90;;;14.43;;
15677;SDS011;7939;50.814;6.368;2023-03-01T10:26:11;23.90;;;15.07;;
15677;SDS011;7939;50.814;6.368;2023-03-01T10:28:50;20.03;;;13.40;;
15677;SDS011;7939;50.814;6.368;2023-03-01T10:31:25;28.87;;;14.80;;
15677;SDS011;7939;50.814;6.368;2023-03-01T10:34:04;24.40;;;13.87;;
15677;SDS011;7939;50.814;6.368;2023-03-01T10:36:34;20.67;;;13.80;;
15677;SDS011;7939;50.814;6.368;2023-03-01T10:39:06;20.13;;;12.87;;
15677;SDS011;7939;50.814;6.368;2023-03-01T10:41:44;23.50;;;13.73;;
15677;SDS011;7939;50.814;6.368;2023-03-01T10:44:35;17.77;;;13.13;;
15677;SDS011;7939;50.814;6.368;2023-03-01T10:47:03;17.43;;;11.97;;
15677;SDS011;7939;50.814;6.368;2023-03-01T10:49:31;22.53;;;13.23;;
15677;SDS011;7939;50.814;6.368;2023-03-01T10:52:11;19.93;;;12.97;;
15677;SDS011;7939;50.814;6.368;2023-03-01T10:54:50;21.00;;;14.73;;
15677;SDS011;7939;50.814;6.368;2023-03-01T10:57:24;21.37;;;13.77;;
15677;SDS011;7939;50.814;6.368;2023-03-01T11:00:15;22.63;;;12.20;;
15677;SDS011;7939;50.814;6.368;2023-03-01T11:02:46;21.23;;;13.03;;
15677;SDS011;7939;50.814;6.368;2023-03-01T11:05:18;23.20;;;12.47;;
15677;SDS011;7939;50.814;6.368;2023-03-01T11:07:49;25.40;;;16.48;;
15677;SDS011;7939;50.814;6.368;2023-03-01T11:10:22;22.87;;;16.53;;
15677;SDS011;7939;50.814;6.368;2023-03-01T11:12:50;21.43;;;16.90;;
15677;SDS011;7939;50.814;6.368;2023-03-01T11:15:23;22.08;;;15.38;;
15677;SDS011;7939;50.814;6.368;2023-03-01T11:17:52;19.63;;;13.57;;
15677;SDS011;7939;50.814;6.368;2023-03-01T11:20:25;31.70;;;18.02;;
15677;SDS011;7939;50.814;6.368;2023-03-01T11:22:56;16.27;;;11.13;;
15677;SDS011;7939;50.814;6.368;2023-03-01T11:25:27;16.42;;;11.65;;
15677;SDS011;7939;50.814;6.368;2023-03-01T11:27:58;16.40;;;10.27;;
15677;SDS011;7939;50.814;6.368;2023-03-01T11:30:30;19.52;;;11.45;;
15677;SDS011;7939;50.814;6.368;2023-03-01T11:33:05;19.17;;;12.30;;
15677;SDS011;7939;50.814;6.368;2023-03-01T11:35:47;23.88;;;13.70;;
15677;SDS011;7939;50.814;6.368;2023-03-01T11:38:22;21.80;;;13.73;;
15677;SDS011;7939;50.814;6.368;2023-03-01T11:40:52;22.67;;;14.32;;
15677;SDS011;7939;50.814;6.368;2023-03-01T11:43:26;18.33;;;13.65;;
15677;SDS011;7939;50.814;6.368;2023-03-01T11:49:00;19.23;;;12.93;;
15677;SDS011;7939;50.814;6.368;2023-03-01T11:51:44;19.80;;;12.63;;
15677;SDS011;7939;50.814;6.368;2023-03-01T11:54:18;16.58;;;11.70;;
15677;SDS011;7939;50.814;6.368;2023-03-01T11:56:55;19.00;;;12.75;;
15677;SDS011;7939;50.814;6.368;2023-03-01T11:59:34;17.88;;;12.60;;
15677;SDS011;7939;50.814;6.368;2023-03-01T12:05:16;19.25;;;13.65;;
15677;SDS011;7939;50.814;6.368;2023-03-01T12:08:06;19.65;;;13.95;;
15677;SDS011;7939;50.814;6.368;2023-03-01T12:10:41;17.35;;;13.55;;
15677;SDS011;7939;50.814;6.368;2023-03-01T12:13:23;23.30;;;14.10;;
15677;SDS011;7939;50.814;6.368;2023-03-01T12:16:13;22.48;;;13.38;;
15677;SDS011;7939;50.814;6.368;2023-03-01T12:18:53;17.83;;;12.25;;
15677;SDS011;7939;50.814;6.368;2023-03-01T12:21:36;22.38;;;13.68;;
15677;SDS011;7939;50.814;6.368;2023-03-01T12:24:26;18.95;;;12.93;;
15677;SDS011;7939;50.814;6.368;2023-03-01T12:27:15;17.08;;;12.20;;
15677;SDS011;7939;50.814;6.368;2023-03-01T12:29:58;19.75;;;13.80;;
15677;SDS011;7939;50.814;6.368;2023-03-01T12:32:47;20.27;;;13.25;;
15677;SDS011;7939;50.814;6.368;2023-03-01T12:35:36;20.90;;;13.88;;
15677;SDS011;7939;50.814;6.368;2023-03-01T12:38:16;19.67;;;12.63;;
15677;SDS011;7939;50.814;6.368;2023-03-01T12:44:01;20.60;;;13.30;;
15677;SDS011;7939;50.814;6.368;2023-03-01T12:46:52;22.08;;;16.13;;
15677;SDS011;7939;50.814;6.368;2023-03-01T12:49:32;21.65;;;13.80;;
15677;SDS011;7939;50.814;6.368;2023-03-01T12:52:07;19.88;;;11.68;;
15677;SDS011;7939;50.814;6.368;2023-03-01T12:54:37;16.25;;;11.75;;
15677;SDS011;7939;50.814;6.368;2023-03-01T12:57:08;16.33;;;12.15;;
15677;SDS011;7939;50.814;6.368;2023-03-01T12:59:42;17.58;;;12.48;;
15677;SDS011;7939;50.814;6.368;2023-03-01T13:02:19;22.17;;;12.60;;
15677;SDS011;7939;50.814;6.368;2023-03-01T13:04:58;16.42;;;11.73;;
15677;SDS011;7939;50.814;6.368;2023-03-01T13:07:34;22.67;;;12.30;;
15677;SDS011;7939;50.814;6.368;2023-03-01T13:12:52;22.98;;;13.25;;
15677;SDS011;7939;50.814;6.368;2023-03-01T13:15:31;17.30;;;12.60;;
15677;SDS011;7939;50.814;6.368;2023-03-01T13:18:00;18.38;;;12.63;;
15677;SDS011;7939;50.814;6.368;2023-03-01T13:20:31;18.77;;;11.48;;
15677;SDS011;7939;50.814;6.368;2023-03-01T13:23:01;21.45;;;13.02;;
15677;SDS011;7939;50.814;6.368;2023-03-01T13:25:31;16.63;;;11.13;;
15677;SDS011;7939;50.814;6.368;2023-03-01T13:31:02;18.83;;;11.48;;
15677;SDS011;7939;50.814;6.368;2023-03-01T13:33:37;18.45;;;11.25;;
15677;SDS011;7939;50.814;6.368;2023-03-01T13:36:06;17.58;;;10.95;;
15677;SDS011;7939;50.814;6.368;2023-03-01T13:38:36;17.17;;;10.98;;
15677;SDS011;7939;50.814;6.368;2023-03-01T13:41:05;16.20;;;11.55;;
15677;SDS011;7939;50.814;6.368;2023-03-01T13:43:32;16.40;;;10.80;;
15677;SDS011;7939;50.814;6.368;2023-03-01T13:46:07;19.08;;;11.95;;
15677;SDS011;7939;50.814;6.368;2023-03-01T13:48:36;15.10;;;9.68;;
15677;SDS011;7939;50.814;6.368;2023-03-01T13:51:04;15.40;;;11.20;;
15677;SDS011;7939;50.814;6.368;2023-03-01T13:53:34;18.75;;;11.93;;
15677;SDS011;7939;50.814;6.368;2023-03-01T13:56:06;17.50;;;10.80;;
15677;SDS011;7939;50.814;6.368;2023-03-01T13:58:43;15.27;;;9.68;;
15677;SDS011;7939;50.814;6.368;2023-03-01T14:01:22;14.88;;;9.55;;
15677;SDS011;7939;50.814;6.368;2023-03-01T14:03:53;17.67;;;10.25;;
15677;SDS011;7939;50.814;6.368;2023-03-01T14:06:21;16.05;;;9.35;;
15677;SDS011;7939;50.814;6.368;2023-03-01T14:08:49;15.05;;;10.80;;
15677;SDS011;7939;50.814;6.368;2023-03-01T14:11:20;16.85;;;11.65;;
15677;SDS011;7939;50.814;6.368;2023-03-01T14:14:09;16.00;;;10.43;;
15677;SDS011;7939;50.814;6.368;2023-03-01T14:17:01;17.17;;;11.10;;
15677;SDS011;7939;50.814;6.368;2023-03-01T14:19:46;17.23;;;10.75;;
15677;SDS011;7939;50.814;6.368;2023-03-01T14:22:16;15.45;;;11.05;;
15677;SDS011;7939;50.814;6.368;2023-03-01T14:24:47;16.25;;;10.65;;
15677;SDS011;7939;50.814;6.368;2023-03-01T14:27:17;17.77;;;11.52;;
15677;SDS011;7939;50.814;6.368;2023-03-01T14:29:45;17.05;;;11.18;;
15677;SDS011;7939;50.814;6.368;2023-03-01T14:32:24;14.10;;;10.27;;
15677;SDS011;7939;50.814;6.368;2023-03-01T14:34:52;17.27;;;10.70;;
15677;SDS011;7939;50.814;6.368;2023-03-01T14:37:21;21.35;;;11.98;;
15677;SDS011;7939;50.814;6.368;2023-03-01T14:39:50;19.50;;;10.77;;
15677;SDS011;7939;50.814;6.368;2023-03-01T14:42:18;19.38;;;10.70;;
15677;SDS011;7939;50.814;6.368;2023-03-01T14:44:47;15.50;;;10.68;;
15677;SDS011;7939;50.814;6.368;2023-03-01T14:47:19;18.10;;;10.88;;
15677;SDS011;7939;50.814;6.368;2023-03-01T14:49:54;13.27;;;10.20;;
15677;SDS011;7939;50.814;6.368;2023-03-01T14:52:25;17.27;;;10.07;;
15677;SDS011;7939;50.814;6.368;2023-03-01T14:55:01;16.58;;;11.18;;
15677;SDS011;7939;50.814;6.368;2023-03-01T14:57:30;15.10;;;11.35;;
15677;SDS011;7939;50.814;6.368;2023-03-01T14:59:57;15.85;;;10.68;;
15677;SDS011;7939;50.814;6.368;2023-03-01T15:02:31;15.93;;;10.10;;
15677;SDS011;7939;50.814;6.368;2023-03-01T15:05:00;16.88;;;9.73;;
15677;SDS011;7939;50.814;6.368;2023-03-01T15:07:29;17.02;;;10.07;;
15677;SDS011;7939;50.814;6.368;2023-03-01T15:09:58;16.50;;;10.32;;
15677;SDS011;7939;50.814;6.368;2023-03-01T15:12:35;15.65;;;10.85;;
15677;SDS011;7939;50.814;6.368;2023-03-01T15:15:30;16.40;;;10.18;;
15677;SDS011;7939;50.814;6.368;2023-03-01T15:18:00;16.65;;;11.20;;
15677;SDS011;7939;50.814;6.368;2023-03-01T15:20:29;17.23;;;10.23;;
15677;SDS011;7939;50.814;6.368;2023-03-01T15:23:00;14.85;;;10.32;;